sensor_id;sensor_type;location;lat;lon;timestamp;pressure;altitude;pressure_sealevel;temperature;humidity
37778;BME280;23615;51.506;7.678;2023-03-24T00:00:42;98594.69;;;11.16;100.00
37778;BME280;23615;51.506;7.678;2023-03-24T00:03:07;98600.59;;;11.18;100.00
37778;BME280;23615;51.506;7.678;2023-03-24T00:05:33;98598.19;;;11.22;100.00
37778;BME280;23615;51.506;7.678;2023-03-24T00:07:58;98591.28;;;11.41;100.00
37778;BME280;23615;51.506;7.678;2023-03-24T00:10:25;98589.13;;;11.38;100.00
37778;BME280;23615;51.506;7.678;2023-03-24T00:12:55;98583.25;;;11.31;100.00
37778;BME280;23615;51.506;7.678;2023-03-24T00:15:20;98582.19;;;11.32;100.00
37778;BME280;23615;51.506;7.678;2023-03-24T00:17:47;98581.41;;;11.37;100.00
37778;BME280;23615;51.506;7.678;2023-03-24T00:20:15;98570.75;;;11.47;100.00
37778;BME280;23615;51.506;7.678;2023-03-24T00:22:42;98569.66;;;11.38;100.00
37778;BME280;23615;51.506;7.678;2023-03-24T00:25:19;98573.13;;;11.38;100.00
37778;BME280;23615;51.506;7.678;2023-03-24T00:27:45;98569.94;;;11.46;100.00
37778;BME280;23615;51.506;7.678;2023-03-24T00:30:13;98566.19;;;11.42;100.00
37778;BME280;23615;51.506;7.678;2023-03-24T00:32:39;98561.94;;;11.46;100.00
37778;BME280;23615;51.506;7.678;2023-03-24T00:35:06;98569.63;;;11.33;100.00
37778;BME280;23615;51.506;7.678;2023-03-24T00:37:34;98561.59;;;11.22;100.00
37778;BME280;23615;51.506;7.678;2023-03-24T00:40:05;98555.25;;;11.49;100.00
37778;BME280;23615;51.506;7.678;2023-03-24T00:42:34;98547.50;;;11.47;100.00
37778;BME280;23615;51.506;7.678;2023-03-24T00:44:59;98548.31;;;11.43;100.00
37778;BME280;23615;51.506;7.678;2023-03-24T00:47:25;98543.47;;;11.40;100.00
37778;BME280;23615;51.506;7.678;2023-03-24T00:49:51;98540.28;;;11.48;100.00
37778;BME280;23615;51.506;7.678;2023-03-24T00:52:21;98535.75;;;11.48;100.00
37778;BME280;23615;51.506;7.678;2023-03-24T00:54:48;98520.25;;;11.50;100.00
37778;BME280;23615;51.506;7.678;2023-03-24T00:57:15;98523.19;;;11.44;100.00
37778;BME280;23615;51.506;7.678;2023-03-24T00:59:48;98516.25;;;11.53;100.00
37778;BME280;23615;51.506;7.678;2023-03-24T01:02:16;98515.47;;;11.52;100.00
37778;BME280;23615;51.506;7.678;2023-03-24T01:04:43;98506.91;;;11.50;100.00
37778;BME280;23615;51.506;7.678;2023-03-24T01:07:12;98509.84;;;11.54;100.00
37778;BME280;23615;51.506;7.678;2023-03-24T01:09:43;98505.84;;;11.46;100.00
37778;BME280;23615;51.506;7.678;2023-03-24T01:12:10;98486.06;;;11.57;100.00
37778;BME280;23615;51.506;7.678;2023-03-24T01:14:36;98493.28;;;11.52;100.00
37778;BME280;23615;51.506;7.678;2023-03-24T01:17:01;98485.81;;;11.54;100.00
37778;BME280;23615;51.506;7.678;2023-03-24T01:19:27;98485.56;;;11.76;100.00
37778;BME280;23615;51.506;7.678;2023-03-24T01:21:53;98474.06;;;11.70;100.00
37778;BME280;23615;51.506;7.678;2023-03-24T01:24:20;98466.31;;;11.69;100.00
37778;BME280;23615;51.506;7.678;2023-03-24T01:26:46;98459.34;;;11.68;100.00
37778;BME280;23615;51.506;7.678;2023-03-24T01:29:11;98460.69;;;11.70;100.00
37778;BME280;23615;51.506;7.678;2023-03-24T01:31:36;98469.50;;;11.71;100.00
37778;BME280;23615;51.506;7.678;2023-03-24T01:34:03;98455.91;;;11.77;100.00
37778;BME280;23615;51.506;7.678;2023-03-24T01:36:28;98458.31;;;11.74;100.00
37778;BME280;23615;51.506;7.678;2023-03-24T01:38:54;98446.53;;;11.75;100.00
37778;BME280;23615;51.506;7.678;2023-03-24T01:41:22;98454.56;;;11.70;100.00
37778;BME280;23615;51.506;7.678;2023-03-24T01:43:47;98447.63;;;11.74;100.00
37778;BME280;23615;51.506;7.678;2023-03-24T01:46:16;98455.63;;;11.69;100.00
37778;BME280;23615;51.506;7.678;2023-03-24T01:48:54;98453.47;;;11.66;100.00
37778;BME280;23615;51.506;7.678;2023-03-24T01:51:34;98464.97;;;11.61;100.00
37778;BME280;23615;51.506;7.678;2023-03-24T01:54:10;98454.81;;;11.68;100.00
37778;BME280;23615;51.506;7.678;2023-03-24T01:56:40;98457.78;;;11.77;100.00
37778;BME280;23615;51.506;7.678;2023-03-24T01:59:09;98459.63;;;11.71;100.00
37778;BME280;23615;51.506;7.678;2023-03-24T02:01:36;98451.91;;;11.65;100.00
37778;BME280;23615;51.506;7.678;2023-03-24T02:04:05;98446.81;;;11.73;100.00
37778;BME280;23615;51.506;7.678;2023-03-24T02:06:36;98439.59;;;11.79;100.00
37778;BME280;23615;51.506;7.678;2023-03-24T02:09:05;98432.66;;;11.83;100.00
37778;BME280;23615;51.506;7.678;2023-03-24T02:11:33;98424.63;;;11.57;100.00
37778;BME280;23615;51.506;7.678;2023-03-24T02:14:00;98425.44;;;11.73;100.00
37778;BME280;23615;51.506;7.678;2023-03-24T02:16:46;98406.72;;;11.73;100.00
37778;BME280;23615;51.506;7.678;2023-03-24T02:25:18;98390.44;;;11.59;100.00
37778;BME280;23615;51.506;7.678;2023-03-24T02:30:47;98378.16;;;11.58;100.00
37778;BME280;23615;51.506;7.678;2023-03-24T02:45:01;98339.94;;;11.73;100.00
37778;BME280;23615;51.506;7.678;2023-03-24T02:47:39;98334.59;;;11.83;100.00
37778;BME280;23615;51.506;7.678;2023-03-24T02:55:45;98326.31;;;11.75;100.00
37778;BME280;23615;51.506;7.678;2023-03-24T02:58:46;98308.44;;;11.65;100.00
37778;BME280;23615;51.506;7.678;2023-03-24T03:03:54;98313.47;;;11.87;100.00
37778;BME280;23615;51.506;7.678;2023-03-24T03:06:30;98308.69;;;11.74;100.00
37778;BME280;23615;51.506;7.678;2023-03-24T03:08:58;98306.28;;;11.82;100.00
37778;BME280;23615;51.506;7.678;2023-03-24T03:11:25;98304.13;;;11.79;100.00
37778;BME280;23615;51.506;7.678;2023-03-24T03:13:54;98297.19;;;11.83;100.00
37778;BME280;23615;51.506;7.678;2023-03-24T03:16:26;98308.91;;;11.92;100.00
37778;BME280;23615;51.506;7.678;2023-03-24T03:18:56;98292.13;;;11.77;100.00
37778;BME280;23615;51.506;7.678;2023-03-24T03:21:29;98291.06;;;11.73;100.00
37778;BME280;23615;51.506;7.678;2023-03-24T03:24:01;98296.63;;;11.86;100.00
37778;BME280;23615;51.506;7.678;2023-03-24T03:26:30;98305.72;;;11.85;100.00
37778;BME280;23615;51.506;7.678;2023-03-24T03:29:07;98283.50;;;11.95;100.00
37778;BME280;23615;51.506;7.678;2023-03-24T03:31:40;98289.63;;;12.01;100.00
37778;BME280;23615;51.506;7.678;2023-03-24T03:34:19;98284.03;;;11.97;100.00
37778;BME280;23615;51.506;7.678;2023-03-24T03:37:06;98289.31;;;12.02;100.00
37778;BME280;23615;51.506;7.678;2023-03-24T03:39:42;98275.94;;;12.07;100.00
37778;BME280;23615;51.506;7.678;2023-03-24T03:42:09;98277.22;;;12.20;100.00
37778;BME280;23615;51.506;7.678;2023-03-24T03:44:35;98285.34;;;11.99;100.00
37778;BME280;23615;51.506;7.678;2023-03-24T03:47:00;98286.06;;;12.15;100.00
37778;BME280;23615;51.506;7.678;2023-03-24T03:49:26;98281.97;;;12.28;100.00
37778;BME280;23615;51.506;7.678;2023-03-24T03:51:51;98284.72;;;12.18;100.00
37778;BME280;23615;51.506;7.678;2023-03-24T03:54:18;98292.75;;;12.18;100.00
37778;BME280;23615;51.506;7.678;2023-03-24T03:56:44;98272.66;;;12.20;100.00
37778;BME280;23615;51.506;7.678;2023-03-24T03:59:26;98277.88;;;12.41;100.00
37778;BME280;23615;51.506;7.678;2023-03-24T04:01:52;98297.16;;;12.38;100.00
37778;BME280;23615;51.506;7.678;2023-03-24T04:04:41;98291.81;;;12.38;100.00
37778;BME280;23615;51.506;7.678;2023-03-24T04:07:24;98291.28;;;12.35;100.00
37778;BME280;23615;51.506;7.678;2023-03-24T04:15:28;98299.16;;;12.12;100.00
37778;BME280;23615;51.506;7.678;2023-03-24T04:18:05;98295.13;;;12.19;100.00
37778;BME280;23615;51.506;7.678;2023-03-24T04:28:20;98300.81;;;12.03;100.00
37778;BME280;23615;51.506;7.678;2023-03-24T04:31:03;98306.91;;;12.13;100.00
37778;BME280;23615;51.506;7.678;2023-03-24T04:34:15;98304.78;;;12.15;100.00
37778;BME280;23615;51.506;7.678;2023-03-24T04:36:54;98302.03;;;12.25;100.00
37778;BME280;23615;51.506;7.678;2023-03-24T04:39:24;98315.22;;;12.12;100.00
37778;BME280;23615;51.506;7.678;2023-03-24T04:41:58;98298.16;;;12.03;100.00
37778;BME280;23615;51.506;7.678;2023-03-24T04:44:26;98314.97;;;12.08;100.00
37778;BME280;23615;51.506;7.678;2023-03-24T04:46:56;98305.94;;;11.94;100.00
37778;BME280;23615;51.506;7.678;2023-03-24T04:49:23;98304.28;;;12.08;100.00
37778;BME280;23615;51.506;7.678;2023-03-24T04:51:49;98303.22;;;12.04;100.00
37778;BME280;23615;51.506;7.678;2023-03-24T04:54:16;98311.50;;;12.03;100.00
37778;BME280;23615;51.506;7.678;2023-03-24T04:56:47;98315.59;;;11.85;100.00
37778;BME280;23615;51.506;7.678;2023-03-24T04:59:14;98312.56;;;12.07;100.00
37778;BME280;23615;51.506;7.678;2023-03-24T05:01:41;98334.44;;;12.14;100.00
37778;BME280;23615;51.506;7.678;2023-03-24T05:04:16;98337.44;;;12.07;100.00
37778;BME280;23615;51.506;7.678;2023-03-24T05:06:42;98338.53;;;12.01;100.00
37778;BME280;23615;51.506;7.678;2023-03-24T05:09:07;98374.53;;;12.19;100.00
37778;BME280;23615;51.506;7.678;2023-03-24T05:11:32;98371.91;;;12.09;100.00
37778;BME280;23615;51.506;7.678;2023-03-24T05:13:58;98378.00;;;12.24;100.00
37778;BME280;23615;51.506;7.678;2023-03-24T05:16:23;98372.09;;;12.22;100.00
37778;BME280;23615;51.506;7.678;2023-03-24T05:18:49;98383.06;;;12.21;100.00
37778;BME280;23615;51.506;7.678;2023-03-24T05:21:14;98380.13;;;12.27;100.00
37778;BME280;23615;51.506;7.678;2023-03-24T05:23:39;98389.56;;;12.10;100.00
37778;BME280;23615;51.506;7.678;2023-03-24T05:26:05;98389.84;;;11.93;100.00
37778;BME280;23615;51.506;7.678;2023-03-24T05:28:31;98392.22;;;12.10;100.00
37778;BME280;23615;51.506;7.678;2023-03-24T05:30:56;98396.72;;;12.24;100.00
37778;BME280;23615;51.506;7.678;2023-03-24T05:33:21;98399.91;;;12.21;100.00
37778;BME280;23615;51.506;7.678;2023-03-24T05:35:47;98410.38;;;12.18;100.00
37778;BME280;23615;51.506;7.678;2023-03-24T05:38:12;98421.34;;;12.16;100.00
37778;BME280;23615;51.506;7.678;2023-03-24T05:40:37;98416.56;;;12.08;100.00
37778;BME280;23615;51.506;7.678;2023-03-24T05:43:03;98432.03;;;12.11;100.00
37778;BME280;23615;51.506;7.678;2023-03-24T05:45:28;98438.44;;;12.15;100.00
37778;BME280;23615;51.506;7.678;2023-03-24T05:47:54;98441.66;;;12.12;100.00
37778;BME280;23615;51.506;7.678;2023-03-24T05:50:20;98454.22;;;12.12;100.00
37778;BME280;23615;51.506;7.678;2023-03-24T05:52:46;98454.78;;;12.04;100.00
37778;BME280;23615;51.506;7.678;2023-03-24T05:55:11;98468.41;;;12.07;100.00
37778;BME280;23615;51.506;7.678;2023-03-24T05:57:36;98480.19;;;12.01;100.00
37778;BME280;23615;51.506;7.678;2023-03-24T06:00:04;98489.28;;;12.00;100.00
37778;BME280;23615;51.506;7.678;2023-03-24T06:02:35;98486.88;;;11.98;100.00
37778;BME280;23615;51.506;7.678;2023-03-24T06:05:00;98499.44;;;11.98;99.97
37778;BME280;23615;51.506;7.678;2023-03-24T06:07:26;98512.56;;;11.89;100.00
37778;BME280;23615;51.506;7.678;2023-03-24T06:09:55;98502.13;;;11.88;100.00
37778;BME280;23615;51.506;7.678;2023-03-24T06:12:22;98504.25;;;11.86;98.93
37778;BME280;23615;51.506;7.678;2023-03-24T06:14:47;98513.63;;;11.78;98.90
37778;BME280;23615;51.506;7.678;2023-03-24T06:17:13;98517.34;;;11.72;97.92
37778;BME280;23615;51.506;7.678;2023-03-24T06:19:41;98519.72;;;11.69;97.86
37778;BME280;23615;51.506;7.678;2023-03-24T06:22:13;98517.59;;;11.66;98.75
37778;BME280;23615;51.506;7.678;2023-03-24T06:24:39;98523.47;;;11.62;98.24
37778;BME280;23615;51.506;7.678;2023-03-24T06:27:04;98532.03;;;11.65;98.42
37778;BME280;23615;51.506;7.678;2023-03-24T06:29:33;98528.81;;;11.57;96.20
37778;BME280;23615;51.506;7.678;2023-03-24T06:31:58;98539.47;;;11.47;95.87
37778;BME280;23615;51.506;7.678;2023-03-24T06:34:24;98550.19;;;11.37;94.97
37778;BME280;23615;51.506;7.678;2023-03-24T06:36:50;98559.25;;;11.41;95.10
37778;BME280;23615;51.506;7.678;2023-03-24T06:39:15;98571.78;;;11.36;94.27
37778;BME280;23615;51.506;7.678;2023-03-24T06:41:41;98558.69;;;11.29;93.89
37778;BME280;23615;51.506;7.678;2023-03-24T06:44:07;98555.72;;;11.20;94.39
37778;BME280;23615;51.506;7.678;2023-03-24T06:46:32;98549.31;;;11.16;94.47
37778;BME280;23615;51.506;7.678;2023-03-24T06:48:57;98549.31;;;11.16;94.79
37778;BME280;23615;51.506;7.678;2023-03-24T06:51:23;98566.91;;;11.12;94.86
37778;BME280;23615;51.506;7.678;2023-03-24T06:53:48;98568.78;;;11.07;94.75
37778;BME280;23615;51.506;7.678;2023-03-24T06:56:14;98563.44;;;11.07;95.04
37778;BME280;23615;51.506;7.678;2023-03-24T06:58:45;98578.69;;;11.16;95.51
37778;BME280;23615;51.506;7.678;2023-03-24T07:01:11;98592.28;;;11.20;95.12
37778;BME280;23615;51.506;7.678;2023-03-24T07:03:37;98597.06;;;11.13;94.28
37778;BME280;23615;51.506;7.678;2023-03-24T07:06:04;98592.03;;;11.16;93.90
37778;BME280;23615;51.506;7.678;2023-03-24T07:08:29;98605.63;;;11.15;92.56
37778;BME280;23615;51.506;7.678;2023-03-24T07:10:55;98612.03;;;11.14;93.36
37778;BME280;23615;51.506;7.678;2023-03-24T07:13:21;98628.56;;;11.06;92.61
37778;BME280;23615;51.506;7.678;2023-03-24T07:15:46;98613.59;;;11.00;93.43
37778;BME280;23615;51.506;7.678;2023-03-24T07:18:12;98617.03;;;10.95;92.29
37778;BME280;23615;51.506;7.678;2023-03-24T07:20:38;98618.88;;;10.95;92.94
37778;BME280;23615;51.506;7.678;2023-03-24T07:23:03;98614.09;;;10.92;93.18
37778;BME280;23615;51.506;7.678;2023-03-24T07:25:28;98621.00;;;10.93;93.46
37778;BME280;23615;51.506;7.678;2023-03-24T07:27:54;98626.91;;;10.95;93.13
37778;BME280;23615;51.506;7.678;2023-03-24T07:30:20;98638.63;;;10.94;93.73
37778;BME280;23615;51.506;7.678;2023-03-24T07:32:46;98634.41;;;11.03;94.09
37778;BME280;23615;51.506;7.678;2023-03-24T07:35:13;98644.63;;;11.16;94.22
37778;BME280;23615;51.506;7.678;2023-03-24T07:37:40;98646.19;;;11.07;94.15
37778;BME280;23615;51.506;7.678;2023-03-24T07:40:06;98632.28;;;11.05;94.23
37778;BME280;23615;51.506;7.678;2023-03-24T07:42:36;98649.66;;;11.07;94.28
37778;BME280;23615;51.506;7.678;2023-03-24T07:45:01;98641.91;;;11.11;92.77
37778;BME280;23615;51.506;7.678;2023-03-24T07:47:26;98638.63;;;10.88;91.63
37778;BME280;23615;51.506;7.678;2023-03-24T07:49:52;98648.72;;;10.81;91.41
37778;BME280;23615;51.506;7.678;2023-03-24T07:52:17;98639.63;;;10.77;90.28
37778;BME280;23615;51.506;7.678;2023-03-24T07:54:42;98649.97;;;10.64;90.51
37778;BME280;23615;51.506;7.678;2023-03-24T07:57:07;98654.88;;;10.82;89.63
37778;BME280;23615;51.506;7.678;2023-03-24T07:59:33;98670.34;;;10.85;89.58
37778;BME280;23615;51.506;7.678;2023-03-24T08:01:58;98666.63;;;10.86;89.03
37778;BME280;23615;51.506;7.678;2023-03-24T08:04:24;98673.63;;;10.97;89.04
37778;BME280;23615;51.506;7.678;2023-03-24T08:06:51;98674.38;;;10.87;89.40
37778;BME280;23615;51.506;7.678;2023-03-24T08:09:16;98682.38;;;10.93;88.98
37778;BME280;23615;51.506;7.678;2023-03-24T08:11:42;98680.50;;;10.88;88.43
37778;BME280;23615;51.506;7.678;2023-03-24T08:14:07;98677.59;;;10.90;89.01
37778;BME280;23615;51.506;7.678;2023-03-24T08:16:32;98686.66;;;10.88;89.08
37778;BME280;23615;51.506;7.678;2023-03-24T08:18:57;98682.94;;;10.95;88.83
37778;BME280;23615;51.506;7.678;2023-03-24T08:21:24;98696.91;;;11.12;88.50
37778;BME280;23615;51.506;7.678;2023-03-24T08:23:49;98683.59;;;11.17;88.18
37778;BME280;23615;51.506;7.678;2023-03-24T08:26:15;98684.16;;;11.24;87.96
37778;BME280;23615;51.506;7.678;2023-03-24T08:28:41;98689.19;;;11.20;88.12
37778;BME280;23615;51.506;7.678;2023-03-24T08:31:06;98689.19;;;11.20;87.25
37778;BME280;23615;51.506;7.678;2023-03-24T08:33:32;98686.06;;;11.29;87.00
37778;BME280;23615;51.506;7.678;2023-03-24T08:35:57;98699.06;;;11.15;87.66
37778;BME280;23615;51.506;7.678;2023-03-24T08:38:25;98689.28;;;11.41;86.14
37778;BME280;23615;51.506;7.678;2023-03-24T08:40:56;98686.09;;;11.44;85.69
37778;BME280;23615;51.506;7.678;2023-03-24T08:43:23;98685.34;;;11.53;86.12
37778;BME280;23615;51.506;7.678;2023-03-24T08:45:50;98697.56;;;11.39;86.90
37778;BME280;23615;51.506;7.678;2023-03-24T08:48:15;98679.41;;;11.41;86.35
37778;BME280;23615;51.506;7.678;2023-03-24T08:50:41;98677.00;;;11.35;86.63
37778;BME280;23615;51.506;7.678;2023-03-24T08:53:08;98682.09;;;11.41;86.54
37778;BME280;23615;51.506;7.678;2023-03-24T08:55:34;98686.38;;;11.42;84.92
37778;BME280;23615;51.506;7.678;2023-03-24T08:58:02;98689.25;;;11.31;85.92
37778;BME280;23615;51.506;7.678;2023-03-24T09:00:27;98687.47;;;11.51;86.77
37778;BME280;23615;51.506;7.678;2023-03-24T09:02:54;98691.88;;;11.88;84.86
37778;BME280;23615;51.506;7.678;2023-03-24T09:05:22;98694.72;;;11.66;84.29
37778;BME280;23615;51.506;7.678;2023-03-24T09:07:48;98694.81;;;11.91;82.64
37778;BME280;23615;51.506;7.678;2023-03-24T09:10:14;98694.81;;;11.91;83.32
37778;BME280;23615;51.506;7.678;2023-03-24T09:12:41;98704.66;;;11.76;83.83
37778;BME280;23615;51.506;7.678;2023-03-24T09:15:08;98687.34;;;11.83;82.59
37778;BME280;23615;51.506;7.678;2023-03-24T09:17:34;98704.94;;;11.84;83.36
37778;BME280;23615;51.506;7.678;2023-03-24T09:20:00;98700.44;;;12.05;83.42
37778;BME280;23615;51.506;7.678;2023-03-24T09:22:27;98707.41;;;12.06;82.14
37778;BME280;23615;51.506;7.678;2023-03-24T09:24:52;98691.06;;;12.03;81.78
37778;BME280;23615;51.506;7.678;2023-03-24T09:27:17;98694.56;;;12.13;81.74
37778;BME280;23615;51.506;7.678;2023-03-24T09:29:43;98693.22;;;12.21;81.91
37778;BME280;23615;51.506;7.678;2023-03-24T09:32:08;98699.94;;;12.28;82.13
37778;BME280;23615;51.506;7.678;2023-03-24T09:34:35;98704.72;;;12.21;82.42
37778;BME280;23615;51.506;7.678;2023-03-24T09:37:03;98707.41;;;12.31;81.73
37778;BME280;23615;51.506;7.678;2023-03-24T09:39:28;98710.09;;;12.31;82.12
37778;BME280;23615;51.506;7.678;2023-03-24T09:41:54;98709.56;;;12.40;83.08
37778;BME280;23615;51.506;7.678;2023-03-24T09:44:24;98701.53;;;12.34;82.69
37778;BME280;23615;51.506;7.678;2023-03-24T09:46:56;98698.06;;;12.54;80.52
37778;BME280;23615;51.506;7.678;2023-03-24T09:49:27;98714.38;;;12.48;81.40
37778;BME280;23615;51.506;7.678;2023-03-24T09:51:58;98706.63;;;12.56;81.94
37778;BME280;23615;51.506;7.678;2023-03-24T09:54:33;98713.84;;;12.71;82.45
37778;BME280;23615;51.506;7.678;2023-03-24T09:57:03;98727.19;;;12.86;81.01
37778;BME280;23615;51.506;7.678;2023-03-24T09:59:37;98724.56;;;12.56;80.72
37778;BME280;23615;51.506;7.678;2023-03-24T10:02:11;98723.75;;;12.50;79.81
37778;BME280;23615;51.506;7.678;2023-03-24T10:04:38;98718.66;;;12.33;78.80
37778;BME280;23615;51.506;7.678;2023-03-24T10:09:55;98713.59;;;12.52;79.65
37778;BME280;23615;51.506;7.678;2023-03-24T10:15:16;98724.53;;;12.76;79.34
37778;BME280;23615;51.506;7.678;2023-03-24T10:20:54;98729.09;;;12.60;79.53
37778;BME280;23615;51.506;7.678;2023-03-24T10:23:33;98743.25;;;12.76;79.94
37778;BME280;23615;51.506;7.678;2023-03-24T10:26:31;98749.16;;;12.68;79.48
37778;BME280;23615;51.506;7.678;2023-03-24T10:31:33;98751.81;;;12.48;78.25
37778;BME280;23615;51.506;7.678;2023-03-24T10:34:00;98749.16;;;12.53;79.87
37778;BME280;23615;51.506;7.678;2023-03-24T10:36:26;98757.44;;;12.66;79.49
37778;BME280;23615;51.506;7.678;2023-03-24T10:38:52;98755.84;;;12.60;79.52
37778;BME280;23615;51.506;7.678;2023-03-24T10:41:20;98753.97;;;12.66;78.06
37778;BME280;23615;51.506;7.678;2023-03-24T10:43:46;98743.28;;;12.51;78.32
37778;BME280;23615;51.506;7.678;2023-03-24T10:46:21;98748.09;;;12.64;77.81
37778;BME280;23615;51.506;7.678;2023-03-24T10:48:49;98763.09;;;12.55;78.16
37778;BME280;23615;51.506;7.678;2023-03-24T10:51:17;98762.00;;;12.66;78.96
37778;BME280;23615;51.506;7.678;2023-03-24T10:53:44;98771.66;;;12.82;77.84
37778;BME280;23615;51.506;7.678;2023-03-24T10:56:37;98741.66;;;12.85;75.32
37778;BME280;23615;51.506;7.678;2023-03-24T10:59:16;98764.94;;;12.90;75.81
37778;BME280;23615;51.506;7.678;2023-03-24T11:01:43;98762.00;;;12.91;75.59
37778;BME280;23615;51.506;7.678;2023-03-24T11:04:13;98763.34;;;12.84;75.64
37778;BME280;23615;51.506;7.678;2023-03-24T11:07:13;98751.25;;;13.11;75.61
37778;BME280;23615;51.506;7.678;2023-03-24T11:12:22;98761.31;;;13.60;75.57
37778;BME280;23615;51.506;7.678;2023-03-24T11:14:47;98747.06;;;13.70;74.33
37778;BME280;23615;51.506;7.678;2023-03-24T11:17:14;98754.03;;;13.71;73.40
37778;BME280;23615;51.506;7.678;2023-03-24T11:19:52;98768.03;;;13.58;74.67
37778;BME280;23615;51.506;7.678;2023-03-24T11:22:18;98767.81;;;13.44;74.35
37778;BME280;23615;51.506;7.678;2023-03-24T11:24:48;98769.50;;;13.20;75.10
37778;BME280;23615;51.506;7.678;2023-03-24T11:27:14;98777.25;;;13.01;74.22
37778;BME280;23615;51.506;7.678;2023-03-24T11:29:43;98779.13;;;12.85;74.58
37778;BME280;23615;51.506;7.678;2023-03-24T11:32:18;98772.16;;;12.89;74.85
37778;BME280;23615;51.506;7.678;2023-03-24T11:34:47;98778.06;;;12.76;74.09
37778;BME280;23615;51.506;7.678;2023-03-24T11:37:26;98773.00;;;12.74;75.13
37778;BME280;23615;51.506;7.678;2023-03-24T11:42:42;98784.72;;;12.48;75.71
37778;BME280;23615;51.506;7.678;2023-03-24T11:45:34;98785.00;;;12.42;76.58
37778;BME280;23615;51.506;7.678;2023-03-24T11:48:06;98789.81;;;12.45;76.65
37778;BME280;23615;51.506;7.678;2023-03-24T11:50:37;98787.66;;;12.42;77.10
37778;BME280;23615;51.506;7.678;2023-03-24T11:53:20;98785.00;;;12.52;77.24
37778;BME280;23615;51.506;7.678;2023-03-24T11:58:37;98789.03;;;12.85;76.19
37778;BME280;23615;51.506;7.678;2023-03-24T12:06:19;98777.25;;;12.86;76.58
37778;BME280;23615;51.506;7.678;2023-03-24T12:08:58;98773.53;;;12.92;74.47
37778;BME280;23615;51.506;7.678;2023-03-24T12:11:43;98768.41;;;12.85;74.64
37778;BME280;23615;51.506;7.678;2023-03-24T12:14:18;98780.19;;;12.89;74.68
37778;BME280;23615;51.506;7.678;2023-03-24T12:16:55;98782.88;;;12.79;74.08
37778;BME280;23615;51.506;7.678;2023-03-24T12:25:28;98783.94;;;12.98;74.64
37778;BME280;23615;51.506;7.678;2023-03-24T12:28:15;98788.78;;;13.01;75.03
37778;BME280;23615;51.506;7.678;2023-03-24T12:33:51;98791.44;;;13.06;73.24
37778;BME280;23615;51.506;7.678;2023-03-24T12:39:16;98783.41;;;12.96;72.92
37778;BME280;23615;51.506;7.678;2023-03-24T12:41:55;98765.44;;;13.02;72.55
37778;BME280;23615;51.506;7.678;2023-03-24T12:50:17;98757.66;;;13.31;73.36
37778;BME280;23615;51.506;7.678;2023-03-24T12:53:02;98763.22;;;13.55;72.54
37778;BME280;23615;51.506;7.678;2023-03-24T12:55:38;98751.59;;;13.79;71.28
37778;BME280;23615;51.506;7.678;2023-03-24T12:58:36;98753.59;;;14.03;70.45
37778;BME280;23615;51.506;7.678;2023-03-24T13:01:06;98749.84;;;14.04;71.39
37778;BME280;23615;51.506;7.678;2023-03-24T13:03:48;98745.81;;;14.06;69.50
37778;BME280;23615;51.506;7.678;2023-03-24T13:08:52;98739.47;;;13.92;70.62
37778;BME280;23615;51.506;7.678;2023-03-24T13:11:26;98745.38;;;13.89;70.92
37778;BME280;23615;51.506;7.678;2023-03-24T13:13:56;98741.34;;;13.86;70.23
37778;BME280;23615;51.506;7.678;2023-03-24T13:16:27;98741.59;;;13.95;70.14
37778;BME280;23615;51.506;7.678;2023-03-24T13:18:57;98738.25;;;14.18;69.31
37778;BME280;23615;51.506;7.678;2023-03-24T13:21:24;98737.38;;;14.28;69.22
37778;BME280;23615;51.506;7.678;2023-03-24T13:23:55;98724.50;;;14.25;69.60
37778;BME280;23615;51.506;7.678;2023-03-24T13:31:44;98727.56;;;14.08;68.63
37778;BME280;23615;51.506;7.678;2023-03-24T13:37:06;98746.06;;;14.10;69.58
37778;BME280;23615;51.506;7.678;2023-03-24T13:39:36;98732.06;;;14.18;69.49
37778;BME280;23615;51.506;7.678;2023-03-24T13:42:02;98741.72;;;14.19;70.18
37778;BME280;23615;51.506;7.678;2023-03-24T13:44:38;98729.69;;;14.11;70.07
37778;BME280;23615;51.506;7.678;2023-03-24T13:49:54;98735.72;;;13.88;70.27
37778;BME280;23615;51.506;7.678;2023-03-24T13:52:36;98740.31;;;13.82;69.70
37778;BME280;23615;51.506;7.678;2023-03-24T13:55:09;98754.09;;;13.61;69.58
37778;BME280;23615;51.506;7.678;2023-03-24T13:57:40;98742.34;;;13.46;69.26
37778;BME280;23615;51.506;7.678;2023-03-24T14:02:44;98742.03;;;13.63;70.88
37778;BME280;23615;51.506;7.678;2023-03-24T14:08:10;98718.94;;;14.16;69.63
37778;BME280;23615;51.506;7.678;2023-03-24T14:10:42;98719.19;;;14.15;70.73
37778;BME280;23615;51.506;7.678;2023-03-24T14:15:43;98709.75;;;14.22;70.52
37778;BME280;23615;51.506;7.678;2023-03-24T14:25:54;98703.19;;;14.44;67.60
37778;BME280;23615;51.506;7.678;2023-03-24T14:28:25;98693.75;;;14.51;67.55
37778;BME280;23615;51.506;7.678;2023-03-24T14:36:27;98699.19;;;14.99;65.98
37778;BME280;23615;51.506;7.678;2023-03-24T14:39:19;98699.75;;;14.96;65.81
37778;BME280;23615;51.506;7.678;2023-03-24T14:41:41;98701.06;;;14.75;65.99
37778;BME280;23615;51.506;7.678;2023-03-24T14:44:08;98694.19;;;14.58;66.89
37778;BME280;23615;51.506;7.678;2023-03-24T14:46:42;98697.75;;;14.54;66.57
37778;BME280;23615;51.506;7.678;2023-03-24T14:49:23;98696.94;;;14.53;66.94
37778;BME280;23615;51.506;7.678;2023-03-24T14:51:57;98692.19;;;14.45;67.36
37778;BME280;23615;51.506;7.678;2023-03-24T14:54:46;98699.72;;;14.38;67.80
37778;BME280;23615;51.506;7.678;2023-03-24T14:57:24;98700.78;;;14.42;67.23
37778;BME280;23615;51.506;7.678;2023-03-24T15:02:37;98769.44;;;13.30;76.00
37778;BME280;23615;51.506;7.678;2023-03-24T15:08:11;98723.19;;;12.68;81.55
37778;BME280;23615;51.506;7.678;2023-03-24T15:10:51;98716.00;;;12.64;80.63
37778;BME280;23615;51.506;7.678;2023-03-24T15:13:28;98727.75;;;12.83;79.19